Time;durP1;ratioP1;P1;durP2;ratioP2;P2;SDS_P1;SDS_P2;PMS_P1;PMS_P2;Temp;Humidity;BMP_temperature;BMP_pressure;BME280_temperature;BME280_humidity;BME280_pressure;Samples;Min_cycle;Max_cycle;Signal;HPM_P1;HPM_P2
2023/01/23 00:00:49;;;;;;;7.80;4.80;;;;;;;;;;5093224;28;20024;-58
2023/01/23 00:03:15;;;;;;;6.00;4.10;;;;;;;;;;5091613;28;20093;-57
2023/01/23 00:05:41;;;;;;;8.23;5.27;;;;;;;;;;5092731;28;20043;-56
2023/01/23 00:08:06;;;;;;;6.23;4.90;;;;;;;;;;5094718;28;20024;-57
2023/01/23 00:10:32;;;;;;;6.33;3.97;;;;;;;;;;5096254;28;20039;-61
2023/01/23 00:12:57;;;;;;;6.07;3.70;;;;;;;;;;5095646;28;20028;-59
2023/01/23 00:15:23;;;;;;;5.90;3.77;;;;;;;;;;5093658;28;20381;-60
2023/01/23 00:17:48;;;;;;;7.20;4.47;;;;;;;;;;5092335;28;20039;-57
2023/01/23 00:20:13;;;;;;;3.80;3.10;;;;;;;;;;5093236;28;20013;-56
2023/01/23 00:22:39;;;;;;;6.47;4.67;;;;;;;;;;5091700;28;20027;-56
2023/01/23 00:25:05;;;;;;;5.53;4.07;;;;;;;;;;5091475;28;20031;-57
2023/01/23 00:27:30;;;;;;;5.97;4.23;;;;;;;;;;5091796;28;20140;-57
2023/01/23 00:29:56;;;;;;;8.27;4.40;;;;;;;;;;5091798;28;20020;-58
2023/01/23 00:32:21;;;;;;;6.33;3.90;;;;;;;;;;5091814;28;20036;-57
2023/01/23 00:34:47;;;;;;;7.03;3.93;;;;;;;;;;5093978;28;20038;-56
2023/01/23 00:37:13;;;;;;;5.80;3.07;;;;;;;;;;5095333;28;20089;-58
2023/01/23 00:39:38;;;;;;;7.97;4.10;;;;;;;;;;5096836;28;20507;-57
2023/01/23 00:42:04;;;;;;;6.03;3.83;;;;;;;;;;5096684;28;20071;-57
2023/01/23 00:44:29;;;;;;;5.37;3.93;;;;;;;;;;5096517;28;20030;-56
2023/01/23 00:46:55;;;;;;;7.87;5.13;;;;;;;;;;5096633;28;20016;-58
2023/01/23 00:49:20;;;;;;;7.13;4.80;;;;;;;;;;5096108;28;20070;-58
2023/01/23 00:51:46;;;;;;;8.60;4.70;;;;;;;;;;5096179;28;20035;-58
2023/01/23 00:54:12;;;;;;;7.87;5.30;;;;;;;;;;5095191;28;20108;-58
2023/01/23 00:56:39;;;;;;;6.87;4.63;;;;;;;;;;5096500;28;20024;-56
2023/01/23 00:59:04;;;;;;;8.30;5.27;;;;;;;;;;5096694;28;20008;-57
2023/01/23 01:01:31;;;;;;;7.97;4.93;;;;;;;;;;5095478;28;20023;-56
2023/01/23 01:03:57;;;;;;;7.80;4.20;;;;;;;;;;5096165;28;20089;-56
2023/01/23 01:06:23;;;;;;;4.63;3.47;;;;;;;;;;5094662;28;20023;-56
2023/01/23 01:08:48;;;;;;;6.10;3.63;;;;;;;;;;5094599;28;20024;-57
2023/01/23 01:11:14;;;;;;;6.70;4.27;;;;;;;;;;5094570;28;20032;-57
2023/01/23 01:13:40;;;;;;;6.50;4.03;;;;;;;;;;5096181;28;20030;-58
2023/01/23 01:16:06;;;;;;;6.83;4.33;;;;;;;;;;5094399;28;20085;-58
2023/01/23 01:18:33;;;;;;;5.57;4.07;;;;;;;;;;5094490;28;20069;-57
2023/01/23 01:20:58;;;;;;;7.17;4.63;;;;;;;;;;5094037;28;20026;-58
2023/01/23 01:23:24;;;;;;;6.13;4.20;;;;;;;;;;5094673;28;20024;-57
2023/01/23 01:25:50;;;;;;;7.07;4.23;;;;;;;;;;5096079;28;20140;-59
2023/01/23 01:28:15;;;;;;;6.57;4.23;;;;;;;;;;5100251;28;20037;-58
2023/01/23 01:30:41;;;;;;;6.47;4.50;;;;;;;;;;5100157;28;20024;-58
2023/01/23 01:33:06;;;;;;;7.33;4.00;;;;;;;;;;5099032;28;20027;-57
2023/01/23 01:35:32;;;;;;;6.67;5.03;;;;;;;;;;5097089;28;20101;-55
2023/01/23 01:37:57;;;;;;;6.37;4.70;;;;;;;;;;5094643;28;20501;-56
2023/01/23 01:40:25;;;;;;;6.03;4.37;;;;;;;;;;5095326;28;20427;-56
2023/01/23 01:42:57;;;;;;;7.90;4.90;;;;;;;;;;5095078;28;20464;-57
2023/01/23 01:45:41;;;;;;;6.43;5.17;;;;;;;;;;5095098;28;20472;-58
2023/01/23 01:48:07;;;;;;;8.07;4.57;;;;;;;;;;5094174;28;20052;-57
2023/01/23 01:50:34;;;;;;;6.60;4.17;;;;;;;;;;5093619;28;20497;-58
2023/01/23 01:52:59;;;;;;;5.83;4.30;;;;;;;;;;5094923;28;20048;-57
2023/01/23 01:55:25;;;;;;;7.97;5.03;;;;;;;;;;5094068;28;20028;-57
2023/01/23 01:57:53;;;;;;;5.70;3.87;;;;;;;;;;5095409;28;20381;-57
2023/01/23 02:00:19;;;;;;;5.73;3.90;;;;;;;;;;5094948;28;20430;-56
2023/01/23 02:02:48;;;;;;;5.80;4.03;;;;;;;;;;5094941;28;20028;-56
2023/01/23 02:05:21;;;;;;;6.20;4.40;;;;;;;;;;5095632;28;20083;-56
2023/01/23 02:07:58;;;;;;;5.70;4.17;;;;;;;;;;5095164;28;20020;-56
2023/01/23 02:10:24;;;;;;;7.27;4.20;;;;;;;;;;5096205;28;20026;-57
2023/01/23 02:12:50;;;;;;;5.70;3.40;;;;;;;;;;5095731;28;20016;-57
2023/01/23 02:15:17;;;;;;;4.80;3.23;;;;;;;;;;5077058;28;20814;-59
2023/01/23 02:17:43;;;;;;;6.93;3.83;;;;;;;;;;5093367;28;20051;-57
2023/01/23 02:20:12;;;;;;;5.30;3.03;;;;;;;;;;5095040;28;20050;-58
2023/01/23 02:22:45;;;;;;;6.77;3.93;;;;;;;;;;5095335;28;20020;-57
2023/01/23 02:25:37;;;;;;;7.20;4.43;;;;;;;;;;5095017;28;20473;-58
2023/01/23 02:28:03;;;;;;;4.90;3.60;;;;;;;;;;5094600;28;20031;-60
2023/01/23 02:30:28;;;;;;;5.20;3.90;;;;;;;;;;5093866;28;20020;-57
2023/01/23 02:32:54;;;;;;;7.17;4.03;;;;;;;;;;5095845;28;20016;-58
2023/01/23 02:35:24;;;;;;;5.27;3.77;;;;;;;;;;5093544;28;20148;-58
2023/01/23 02:37:51;;;;;;;5.50;3.23;;;;;;;;;;5093283;28;20103;-57
2023/01/23 02:40:17;;;;;;;6.27;3.93;;;;;;;;;;5092928;28;20047;-62
2023/01/23 02:42:45;;;;;;;6.53;3.57;;;;;;;;;;5094689;28;20012;-57
2023/01/23 02:45:10;;;;;;;6.10;3.80;;;;;;;;;;5094694;28;20013;-57
2023/01/23 02:47:36;;;;;;;5.53;3.43;;;;;;;;;;5093948;28;20024;-56
2023/01/23 02:50:01;;;;;;;4.30;2.70;;;;;;;;;;5094370;28;20526;-57
2023/01/23 02:52:29;;;;;;;5.00;3.17;;;;;;;;;;5094917;28;20111;-65
2023/01/23 02:54:54;;;;;;;4.60;2.93;;;;;;;;;;5097326;28;20102;-61
2023/01/23 02:57:20;;;;;;;4.33;3.20;;;;;;;;;;5095291;28;20055;-59
2023/01/23 03:02:30;;;;;;;4.18;2.88;;;;;;;;;;5097069;28;20081;-63
2023/01/23 03:04:56;;;;;;;5.07;3.00;;;;;;;;;;5097166;28;20091;-57
2023/01/23 03:07:21;;;;;;;5.63;3.17;;;;;;;;;;5095158;28;20012;-59
2023/01/23 03:09:48;;;;;;;6.43;3.63;;;;;;;;;;5093200;28;20045;-58
2023/01/23 03:12:14;;;;;;;5.70;3.43;;;;;;;;;;5095284;28;20032;-62
2023/01/23 03:14:40;;;;;;;6.50;3.80;;;;;;;;;;5096244;28;20069;-55
2023/01/23 03:17:05;;;;;;;6.77;4.20;;;;;;;;;;5092504;28;20369;-57
2023/01/23 03:19:30;;;;;;;4.80;3.40;;;;;;;;;;5094079;28;20472;-58
2023/01/23 03:21:57;;;;;;;5.83;3.80;;;;;;;;;;5093597;28;20073;-58
2023/01/23 03:24:26;;;;;;;7.00;4.90;;;;;;;;;;5092399;28;20047;-58
2023/01/23 03:26:51;;;;;;;9.73;5.43;;;;;;;;;;5093412;28;20060;-58
2023/01/23 03:32:02;;;;;;;7.35;4.50;;;;;;;;;;5093798;28;20039;-57
2023/01/23 03:34:28;;;;;;;9.33;5.93;;;;;;;;;;5093567;28;20020;-57
2023/01/23 03:36:55;;;;;;;7.73;5.43;;;;;;;;;;5093528;28;20016;-58
2023/01/23 03:42:04;;;;;;;5.40;3.43;;;;;;;;;;5093567;28;20026;-58
2023/01/23 03:44:29;;;;;;;8.20;5.57;;;;;;;;;;5093499;28;20099;-56
2023/01/23 03:46:55;;;;;;;6.93;5.27;;;;;;;;;;5097922;28;20061;-69
2023/01/23 03:49:20;;;;;;;8.03;5.53;;;;;;;;;;5096199;28;20028;-65
2023/01/23 03:51:46;;;;;;;8.00;5.90;;;;;;;;;;5097746;28;20055;-57
2023/01/23 03:54:13;;;;;;;6.53;4.97;;;;;;;;;;5096331;28;20031;-57
2023/01/23 03:56:39;;;;;;;8.27;6.10;;;;;;;;;;5096078;28;20495;-57
2023/01/23 03:59:04;;;;;;;6.97;4.70;;;;;;;;;;5094923;28;20020;-57
2023/01/23 04:01:30;;;;;;;9.53;5.27;;;;;;;;;;5093987;28;20058;-59
2023/01/23 04:03:55;;;;;;;6.43;4.17;;;;;;;;;;5093211;28;20412;-63
2023/01/23 04:06:21;;;;;;;8.57;5.30;;;;;;;;;;5093262;28;20012;-58
2023/01/23 04:08:46;;;;;;;11.70;4.10;;;;;;;;;;5092591;28;20024;-57
2023/01/23 04:11:12;;;;;;;9.83;6.50;;;;;;;;;;5095774;28;20024;-57
2023/01/23 04:13:38;;;;;;;9.13;6.33;;;;;;;;;;5096013;28;20016;-58
2023/01/23 04:16:04;;;;;;;8.93;6.50;;;;;;;;;;5096079;28;20392;-56
2023/01/23 04:18:30;;;;;;;11.30;6.50;;;;;;;;;;5097177;28;20012;-58
2023/01/23 04:20:56;;;;;;;9.80;6.40;;;;;;;;;;5095700;28;20084;-57
2023/01/23 04:23:22;;;;;;;9.73;6.13;;;;;;;;;;5097521;28;20073;-56
2023/01/23 04:25:48;;;;;;;8.90;6.30;;;;;;;;;;5096865;28;20016;-58
2023/01/23 04:28:14;;;;;;;8.27;5.60;;;;;;;;;;5096094;28;20180;-60
2023/01/23 04:30:39;;;;;;;6.53;4.63;;;;;;;;;;5096998;28;20077;-56
2023/01/23 04:33:06;;;;;;;6.30;4.90;;;;;;;;;;5096608;28;20036;-57
2023/01/23 04:35:32;;;;;;;5.73;3.57;;;;;;;;;;5098010;28;20020;-56
2023/01/23 04:37:57;;;;;;;7.63;4.50;;;;;;;;;;5097844;28;20119;-58
2023/01/23 04:40:22;;;;;;;13.53;5.97;;;;;;;;;;5100015;28;20016;-58
2023/01/23 04:42:48;;;;;;;8.07;4.60;;;;;;;;;;5098905;28;20020;-60
2023/01/23 04:45:14;;;;;;;6.27;3.63;;;;;;;;;;5098260;28;20058;-58
2023/01/23 04:47:39;;;;;;;6.73;3.93;;;;;;;;;;5096115;28;20043;-58
2023/01/23 04:50:05;;;;;;;7.53;4.90;;;;;;;;;;5096885;28;20016;-60
2023/01/23 04:52:31;;;;;;;4.13;2.53;;;;;;;;;;5096600;28;20452;-58
2023/01/23 04:54:57;;;;;;;5.30;3.80;;;;;;;;;;5096589;28;20030;-57
2023/01/23 04:57:23;;;;;;;6.77;4.43;;;;;;;;;;5096432;28;20016;-57
2023/01/23 04:59:49;;;;;;;4.70;3.30;;;;;;;;;;5094928;28;20016;-58
2023/01/23 05:02:14;;;;;;;6.67;3.97;;;;;;;;;;5094874;28;20024;-56
2023/01/23 05:04:40;;;;;;;8.03;4.27;;;;;;;;;;5093823;28;20100;-58
2023/01/23 05:07:05;;;;;;;8.17;4.33;;;;;;;;;;5094785;28;20016;-57
2023/01/23 05:09:31;;;;;;;8.87;4.07;;;;;;;;;;5095068;28;20101;-58
2023/01/23 05:11:56;;;;;;;3.90;2.80;;;;;;;;;;5094644;28;20032;-57
2023/01/23 05:14:24;;;;;;;6.63;4.50;;;;;;;;;;5093441;28;20019;-57
2023/01/23 05:16:49;;;;;;;4.83;3.27;;;;;;;;;;5093471;28;20365;-59
2023/01/23 05:19:15;;;;;;;5.60;3.50;;;;;;;;;;5093940;28;20062;-57
2023/01/23 05:21:40;;;;;;;7.73;4.60;;;;;;;;;;5093166;28;20353;-58
2023/01/23 05:24:06;;;;;;;9.37;5.23;;;;;;;;;;5094398;28;20498;-56
2023/01/23 05:26:32;;;;;;;8.00;5.00;;;;;;;;;;5093341;28;20027;-58
2023/01/23 05:28:59;;;;;;;5.97;4.00;;;;;;;;;;5094247;28;20028;-58
2023/01/23 05:31:25;;;;;;;8.77;3.53;;;;;;;;;;5094654;28;20026;-62
2023/01/23 05:33:50;;;;;;;6.83;3.80;;;;;;;;;;5094758;28;20020;-58
2023/01/23 05:36:16;;;;;;;7.23;3.97;;;;;;;;;;5094452;28;20016;-57
2023/01/23 05:38:41;;;;;;;7.17;3.90;;;;;;;;;;5094618;28;20146;-58
2023/01/23 05:41:06;;;;;;;6.53;3.50;;;;;;;;;;5094407;28;20016;-57
2023/01/23 05:43:32;;;;;;;5.27;2.63;;;;;;;;;;5094277;28;20031;-57
2023/01/23 05:46:01;;;;;;;8.37;3.77;;;;;;;;;;5093200;28;20028;-57
2023/01/23 05:48:26;;;;;;;3.57;1.77;;;;;;;;;;5094191;28;20028;-57
2023/01/23 05:50:52;;;;;;;4.00;2.33;;;;;;;;;;5093965;28;20036;-57
2023/01/23 05:53:17;;;;;;;5.57;2.87;;;;;;;;;;5094455;28;20027;-63
2023/01/23 05:55:43;;;;;;;6.30;3.33;;;;;;;;;;5092862;28;20024;-58
2023/01/23 05:58:08;;;;;;;5.20;3.27;;;;;;;;;;5095504;28;20016;-66
2023/01/23 06:00:34;;;;;;;7.87;4.17;;;;;;;;;;5096326;28;20437;-58
2023/01/23 06:02:59;;;;;;;7.93;3.63;;;;;;;;;;5042904;28;1429497;-58
2023/01/23 06:05:26;;;;;;;8.30;4.67;;;;;;;;;;5094980;28;20032;-58
2023/01/23 06:07:52;;;;;;;7.50;4.07;;;;;;;;;;5096815;28;20028;-62
2023/01/23 06:10:18;;;;;;;9.17;5.30;;;;;;;;;;5098731;28;20016;-59
2023/01/23 06:12:43;;;;;;;8.70;5.03;;;;;;;;;;5098329;28;20036;-57
2023/01/23 06:15:09;;;;;;;6.13;3.83;;;;;;;;;;5094400;28;20103;-59
2023/01/23 06:17:35;;;;;;;8.63;5.30;;;;;;;;;;5093259;28;20111;-57
2023/01/23 06:20:03;;;;;;;9.23;5.10;;;;;;;;;;5093295;28;20027;-55
2023/01/23 06:22:29;;;;;;;7.97;4.63;;;;;;;;;;5094358;28;20426;-59
2023/01/23 06:24:54;;;;;;;7.47;3.97;;;;;;;;;;5093245;28;20019;-59
2023/01/23 06:27:19;;;;;;;4.43;2.00;;;;;;;;;;5093731;28;20099;-59
2023/01/23 06:29:45;;;;;;;4.80;3.07;;;;;;;;;;5094200;28;20012;-57
2023/01/23 06:32:11;;;;;;;7.37;3.70;;;;;;;;;;5091745;28;20036;-59
2023/01/23 06:34:36;;;;;;;5.27;2.93;;;;;;;;;;5093669;28;20464;-59
2023/01/23 06:37:02;;;;;;;7.57;4.13;;;;;;;;;;5092206;28;20027;-59
2023/01/23 06:39:29;;;;;;;12.03;5.47;;;;;;;;;;5094333;28;20420;-57
2023/01/23 06:41:55;;;;;;;13.03;6.80;;;;;;;;;;5092439;28;20119;-57
2023/01/23 06:44:20;;;;;;;6.80;4.27;;;;;;;;;;5094036;28;20095;-57
2023/01/23 06:46:45;;;;;;;8.97;5.03;;;;;;;;;;5093421;28;20122;-59
2023/01/23 06:49:11;;;;;;;12.57;6.77;;;;;;;;;;5091761;28;20109;-59
2023/01/23 06:51:36;;;;;;;11.67;6.27;;;;;;;;;;5091606;28;20046;-59
2023/01/23 06:54:02;;;;;;;9.30;5.10;;;;;;;;;;5093645;28;20465;-59
2023/01/23 06:56:28;;;;;;;13.00;7.00;;;;;;;;;;5092806;28;20095;-58
2023/01/23 06:58:54;;;;;;;11.27;6.43;;;;;;;;;;5093502;28;20047;-57
2023/01/23 07:01:19;;;;;;;10.77;6.70;;;;;;;;;;5092600;28;20016;-58
2023/01/23 07:03:45;;;;;;;9.70;6.13;;;;;;;;;;5093154;28;20083;-57
2023/01/23 07:06:13;;;;;;;13.27;6.77;;;;;;;;;;5092990;28;20027;-58
2023/01/23 07:08:39;;;;;;;9.47;6.00;;;;;;;;;;5093185;28;20023;-58
2023/01/23 07:11:05;;;;;;;13.40;7.23;;;;;;;;;;5093393;28;20032;-57
2023/01/23 07:13:30;;;;;;;7.57;3.87;;;;;;;;;;5093366;28;20099;-59
2023/01/23 07:15:56;;;;;;;11.83;7.50;;;;;;;;;;5092810;28;20107;-59
2023/01/23 07:18:22;;;;;;;9.33;4.47;;;;;;;;;;5093203;28;20486;-57
2023/01/23 07:20:48;;;;;;;12.27;6.67;;;;;;;;;;5091918;28;20040;-58
2023/01/23 07:23:14;;;;;;;5.43;2.90;;;;;;;;;;5093452;28;20020;-58
2023/01/23 07:25:39;;;;;;;7.73;3.90;;;;;;;;;;5093140;28;20391;-59
2023/01/23 07:28:05;;;;;;;8.03;4.83;;;;;;;;;;5092752;28;20018;-58
2023/01/23 07:30:31;;;;;;;7.77;4.13;;;;;;;;;;5092818;28;20429;-59
2023/01/23 07:32:57;;;;;;;6.10;4.00;;;;;;;;;;5092576;28;20027;-59
2023/01/23 07:35:23;;;;;;;6.23;3.57;;;;;;;;;;5092648;28;20099;-60
2023/01/23 07:37:49;;;;;;;8.97;4.93;;;;;;;;;;5092761;28;20465;-59
2023/01/23 07:40:14;;;;;;;4.90;3.07;;;;;;;;;;5092767;28;20072;-58
2023/01/23 07:42:40;;;;;;;7.37;3.87;;;;;;;;;;5092430;28;20445;-59
2023/01/23 07:45:07;;;;;;;5.10;3.00;;;;;;;;;;5091571;28;20032;-59
2023/01/23 07:47:33;;;;;;;7.93;4.63;;;;;;;;;;5090786;28;20052;-59
2023/01/23 07:49:59;;;;;;;7.33;3.83;;;;;;;;;;5093103;28;20020;-57
2023/01/23 07:52:24;;;;;;;8.27;4.47;;;;;;;;;;5091815;28;20042;-58
2023/01/23 07:54:50;;;;;;;9.90;4.63;;;;;;;;;;5092353;28;20012;-58
2023/01/23 07:57:16;;;;;;;7.87;4.83;;;;;;;;;;5092107;28;20103;-59
2023/01/23 07:59:42;;;;;;;6.57;4.20;;;;;;;;;;5092662;28;20016;-58
2023/01/23 08:02:09;;;;;;;7.03;4.40;;;;;;;;;;5092235;28;20036;-58
2023/01/23 08:04:35;;;;;;;6.47;4.13;;;;;;;;;;5092272;28;20048;-63
2023/01/23 08:07:01;;;;;;;5.03;3.70;;;;;;;;;;5092794;28;20029;-58
2023/01/23 08:09:26;;;;;;;7.03;3.47;;;;;;;;;;5093187;28;20118;-59
2023/01/23 08:11:52;;;;;;;7.13;4.23;;;;;;;;;;5093546;28;20036;-58
2023/01/23 08:14:17;;;;;;;9.93;5.27;;;;;;;;;;5094330;28;20020;-62
2023/01/23 08:16:43;;;;;;;9.20;5.73;;;;;;;;;;5095574;28;20052;-58
2023/01/23 08:19:08;;;;;;;6.93;4.07;;;;;;;;;;5095589;28;20024;-57
2023/01/23 08:21:34;;;;;;;9.47;4.53;;;;;;;;;;5095741;28;20380;-65
2023/01/23 08:24:00;;;;;;;8.90;5.70;;;;;;;;;;5095048;28;20099;-58
2023/01/23 08:26:25;;;;;;;7.20;4.07;;;;;;;;;;5094606;28;20391;-60
2023/01/23 08:28:51;;;;;;;8.37;3.90;;;;;;;;;;5092683;28;20151;-56
2023/01/23 08:31:16;;;;;;;10.53;5.73;;;;;;;;;;5093266;28;20024;-57
2023/01/23 08:33:42;;;;;;;8.87;5.27;;;;;;;;;;5091325;28;20115;-58
2023/01/23 08:36:08;;;;;;;7.23;4.70;;;;;;;;;;5092772;28;20012;-59
2023/01/23 08:38:34;;;;;;;7.80;4.93;;;;;;;;;;5092715;28;20527;-59
2023/01/23 08:41:00;;;;;;;5.83;3.67;;;;;;;;;;5092299;28;20556;-59
2023/01/23 08:43:26;;;;;;;6.33;3.17;;;;;;;;;;5095686;28;20026;-58
2023/01/23 08:45:53;;;;;;;8.73;4.73;;;;;;;;;;5094882;28;20080;-59
2023/01/23 08:48:19;;;;;;;4.23;2.87;;;;;;;;;;5095815;28;20020;-56
2023/01/23 08:50:45;;;;;;;5.77;2.93;;;;;;;;;;5092203;28;20035;-58
2023/01/23 08:53:10;;;;;;;5.83;3.73;;;;;;;;;;5092425;28;20388;-55
2023/01/23 08:55:37;;;;;;;5.87;3.63;;;;;;;;;;5094474;28;20023;-58
2023/01/23 08:58:04;;;;;;;8.93;4.47;;;;;;;;;;5096000;28;20012;-56
2023/01/23 09:00:30;;;;;;;10.23;5.60;;;;;;;;;;5095310;28;20388;-65
2023/01/23 09:02:58;;;;;;;7.70;4.30;;;;;;;;;;5098544;28;20008;-59
2023/01/23 09:05:23;;;;;;;9.17;4.83;;;;;;;;;;5096781;28;20089;-57
2023/01/23 09:07:48;;;;;;;7.53;4.37;;;;;;;;;;5094793;28;20019;-57
2023/01/23 09:10:14;;;;;;;9.10;4.30;;;;;;;;;;5095687;28;20016;-57
2023/01/23 09:12:41;;;;;;;9.40;4.63;;;;;;;;;;5095750;28;20058;-56
2023/01/23 09:15:07;;;;;;;6.97;3.43;;;;;;;;;;5095897;28;20035;-57
2023/01/23 09:17:32;;;;;;;9.00;4.20;;;;;;;;;;5095456;28;20016;-58
2023/01/23 09:19:59;;;;;;;4.43;2.53;;;;;;;;;;5095831;28;20012;-58
2023/01/23 09:22:24;;;;;;;8.50;4.63;;;;;;;;;;5095592;28;20354;-57
2023/01/23 09:24:50;;;;;;;9.07;5.83;;;;;;;;;;5095221;28;20012;-58
2023/01/23 09:27:15;;;;;;;6.87;4.13;;;;;;;;;;5095165;28;20027;-59
2023/01/23 09:29:41;;;;;;;8.33;4.53;;;;;;;;;;5095407;28;20012;-57
2023/01/23 09:32:06;;;;;;;8.10;3.93;;;;;;;;;;5095712;28;20074;-58
2023/01/23 09:34:32;;;;;;;6.00;2.40;;;;;;;;;;5095317;28;20016;-59
2023/01/23 09:36:57;;;;;;;10.87;4.43;;;;;;;;;;5095655;28;20019;-58
2023/01/23 09:39:23;;;;;;;8.47;4.20;;;;;;;;;;5095589;28;20056;-59
2023/01/23 09:41:48;;;;;;;7.73;4.80;;;;;;;;;;5094983;28;20039;-57
2023/01/23 09:44:17;;;;;;;6.57;3.70;;;;;;;;;;5095552;28;20016;-59
2023/01/23 09:46:46;;;;;;;7.13;4.60;;;;;;;;;;5095173;28;20020;-58
2023/01/23 09:49:30;;;;;;;10.07;5.33;;;;;;;;;;5095327;28;20020;-59
2023/01/23 09:52:01;;;;;;;5.50;2.67;;;;;;;;;;5096019;28;20028;-59
2023/01/23 09:54:43;;;;;;;3.93;2.67;;;;;;;;;;5096551;28;20020;-58
2023/01/23 09:57:20;;;;;;;3.97;1.83;;;;;;;;;;5095698;28;20476;-55
2023/01/23 09:59:49;;;;;;;10.47;3.03;;;;;;;;;;5095203;28;20074;-58
2023/01/23 10:02:18;;;;;;;9.97;4.73;;;;;;;;;;5094828;28;20108;-57
2023/01/23 10:04:45;;;;;;;8.40;2.93;;;;;;;;;;5094779;28;20048;-58
2023/01/23 10:07:25;;;;;;;3.87;2.93;;;;;;;;;;5092869;28;20047;-58
2023/01/23 10:09:54;;;;;;;0.97;0.87;;;;;;;;;;5093220;28;20020;-59
2023/01/23 10:12:31;;;;;;;11.20;3.60;;;;;;;;;;5094514;28;20028;-59
2023/01/23 10:15:02;;;;;;;3.77;2.23;;;;;;;;;;5095632;28;20488;-59
2023/01/23 10:17:27;;;;;;;5.30;2.80;;;;;;;;;;5094842;28;20012;-58
2023/01/23 10:20:01;;;;;;;8.50;3.47;;;;;;;;;;5092867;28;20081;-59
2023/01/23 10:22:33;;;;;;;6.87;3.00;;;;;;;;;;5094770;28;20520;-57
2023/01/23 10:25:01;;;;;;;7.67;3.37;;;;;;;;;;5093982;28;20028;-58
2023/01/23 10:27:37;;;;;;;5.13;2.70;;;;;;;;;;5094615;28;20392;-57
2023/01/23 10:30:25;;;;;;;5.53;3.37;;;;;;;;;;5093941;28;20392;-60
2023/01/23 10:32:58;;;;;;;6.20;3.03;;;;;;;;;;5086191;28;20044;-58
2023/01/23 10:35:46;;;;;;;7.93;4.27;;;;;;;;;;5094568;28;20422;-61
2023/01/23 10:38:30;;;;;;;7.03;3.60;;;;;;;;;;5093754;28;20036;-59
2023/01/23 10:41:13;;;;;;;4.80;2.40;;;;;;;;;;5093427;28;20065;-59
2023/01/23 10:43:40;;;;;;;8.53;4.17;;;;;;;;;;5094688;28;20051;-66
2023/01/23 10:46:15;;;;;;;11.47;4.07;;;;;;;;;;5094266;28;20511;-59
2023/01/23 10:48:43;;;;;;;11.57;3.97;;;;;;;;;;5092135;28;20088;-58
2023/01/23 10:51:24;;;;;;;10.10;3.50;;;;;;;;;;5093160;28;20064;-60
2023/01/23 10:54:00;;;;;;;11.97;4.30;;;;;;;;;;5093144;28;20020;-60
2023/01/23 10:56:25;;;;;;;5.50;3.50;;;;;;;;;;5094295;28;20024;-63
2023/01/23 10:58:54;;;;;;;7.67;3.27;;;;;;;;;;5094206;28;20020;-61
2023/01/23 11:01:26;;;;;;;9.30;3.83;;;;;;;;;;5094677;28;20020;-60
2023/01/23 11:03:52;;;;;;;11.90;4.63;;;;;;;;;;5091872;28;20052;-60
2023/01/23 11:06:20;;;;;;;8.20;4.10;;;;;;;;;;5093260;28;20016;-58
2023/01/23 11:08:56;;;;;;;10.40;5.13;;;;;;;;;;5092954;28;20024;-59
2023/01/23 11:11:25;;;;;;;20.93;4.03;;;;;;;;;;5093071;28;20411;-59
2023/01/23 11:14:15;;;;;;;6.13;2.87;;;;;;;;;;5092885;28;20098;-64
2023/01/23 11:16:41;;;;;;;3.33;2.37;;;;;;;;;;5085183;28;20519;-61
2023/01/23 11:19:07;;;;;;;6.33;3.37;;;;;;;;;;5093914;28;20028;-60
2023/01/23 11:21:34;;;;;;;6.90;3.67;;;;;;;;;;5093808;28;20019;-69
2023/01/23 11:24:19;;;;;;;5.03;2.70;;;;;;;;;;5094863;28;20094;-60
2023/01/23 11:26:45;;;;;;;13.20;4.13;;;;;;;;;;5093114;28;20020;-59
2023/01/23 11:29:20;;;;;;;8.87;3.83;;;;;;;;;;5092467;28;20068;-60
2023/01/23 11:31:47;;;;;;;5.47;2.37;;;;;;;;;;5092651;28;20071;-60
2023/01/23 11:34:16;;;;;;;5.93;3.33;;;;;;;;;;5092479;28;20008;-60
2023/01/23 11:36:44;;;;;;;7.07;4.43;;;;;;;;;;5092602;28;20480;-59
2023/01/23 11:39:15;;;;;;;9.10;4.00;;;;;;;;;;5091254;28;20016;-59
2023/01/23 11:41:41;;;;;;;8.93;4.50;;;;;;;;;;5091625;28;20031;-59
2023/01/23 11:44:08;;;;;;;5.57;3.07;;;;;;;;;;5093050;28;20046;-59
2023/01/23 11:46:44;;;;;;;7.13;4.17;;;;;;;;;;5092545;28;20020;-58
2023/01/23 11:49:10;;;;;;;8.17;3.27;;;;;;;;;;5091231;28;20024;-59
2023/01/23 11:51:36;;;;;;;6.00;2.53;;;;;;;;;;5092401;28;20449;-58
2023/01/23 11:54:20;;;;;;;6.30;3.10;;;;;;;;;;5092765;28;20024;-58
2023/01/23 11:56:51;;;;;;;3.10;2.00;;;;;;;;;;5092604;28;20012;-58
2023/01/23 11:59:30;;;;;;;5.07;3.03;;;;;;;;;;5091231;28;20032;-59
2023/01/23 12:02:10;;;;;;;8.07;4.60;;;;;;;;;;5093533;28;20036;-59
2023/01/23 12:04:51;;;;;;;8.27;3.87;;;;;;;;;;5092746;28;20044;-59
2023/01/23 12:07:21;;;;;;;9.57;3.40;;;;;;;;;;5092710;28;20027;-58
2023/01/23 12:09:52;;;;;;;5.80;2.50;;;;;;;;;;5093287;28;20434;-60
2023/01/23 12:12:36;;;;;;;9.53;4.33;;;;;;;;;;5091946;28;20028;-58
2023/01/23 12:15:11;;;;;;;5.43;2.87;;;;;;;;;;5094128;28;20040;-59
2023/01/23 12:17:37;;;;;;;6.60;3.28;;;;;;;;;;5095200;28;20388;-60
2023/01/23 12:20:20;;;;;;;3.70;2.53;;;;;;;;;;5095981;28;20107;-59
2023/01/23 12:23:04;;;;;;;11.60;3.33;;;;;;;;;;5095223;28;20378;-59
2023/01/23 12:25:34;;;;;;;9.97;5.00;;;;;;;;;;5095833;28;20112;-59
2023/01/23 12:28:18;;;;;;;10.93;3.23;;;;;;;;;;5092473;28;20388;-59
2023/01/23 12:31:01;;;;;;;4.63;2.33;;;;;;;;;;5094419;28;20051;-60
2023/01/23 12:33:45;;;;;;;14.10;2.80;;;;;;;;;;5096188;28;20136;-61
2023/01/23 12:36:29;;;;;;;5.60;2.10;;;;;;;;;;5097042;28;20028;-59
2023/01/23 12:39:13;;;;;;;9.40;2.83;;;;;;;;;;5095900;28;20559;-59
2023/01/23 12:41:50;;;;;;;7.27;3.37;;;;;;;;;;5096620;28;20031;-63
2023/01/23 12:44:20;;;;;;;4.37;2.70;;;;;;;;;;5098433;28;20465;-61
2023/01/23 12:46:49;;;;;;;27.80;3.37;;;;;;;;;;5097623;28;20024;-58
2023/01/23 12:49:18;;;;;;;5.50;2.23;;;;;;;;;;5096127;28;20012;-63
2023/01/23 12:51:47;;;;;;;5.43;2.20;;;;;;;;;;5096723;28;20447;-58
2023/01/23 12:54:18;;;;;;;6.13;2.33;;;;;;;;;;5097226;28;20016;-64
2023/01/23 12:56:44;;;;;;;4.03;2.60;;;;;;;;;;5097472;28;20419;-58
2023/01/23 12:59:24;;;;;;;3.90;2.57;;;;;;;;;;5097417;28;20027;-59
2023/01/23 13:01:49;;;;;;;5.67;2.57;;;;;;;;;;5096820;28;20047;-59
2023/01/23 13:04:28;;;;;;;5.47;3.13;;;;;;;;;;5096110;28;20400;-61
2023/01/23 13:06:59;;;;;;;3.77;2.37;;;;;;;;;;5095498;28;20024;-59
2023/01/23 13:09:43;;;;;;;4.73;2.20;;;;;;;;;;5094454;28;20032;-59
2023/01/23 13:12:20;;;;;;;2.70;1.83;;;;;;;;;;5095853;28;20434;-59
2023/01/23 13:14:46;;;;;;;4.53;2.07;;;;;;;;;;5096306;28;20058;-59
2023/01/23 13:17:34;;;;;;;9.57;3.60;;;;;;;;;;5095640;28;20024;-59
2023/01/23 13:23:21;;;;;;;9.30;3.00;;;;;;;;;;5097059;28;20093;-66
2023/01/23 13:25:47;;;;;;;4.70;2.60;;;;;;;;;;5096694;28;20024;-58
2023/01/23 13:28:47;;;;;;;6.53;2.30;;;;;;;;;;5095848;28;20424;-60
2023/01/23 13:31:32;;;;;;;7.00;2.23;;;;;;;;;;5033283;28;20483;-58
2023/01/23 13:33:58;;;;;;;3.28;1.98;;;;;;;;;;5091118;28;20100;-59
2023/01/23 13:36:28;;;;;;;3.00;1.83;;;;;;;;;;5099100;28;20111;-59
2023/01/23 13:39:00;;;;;;;7.10;3.47;;;;;;;;;;5098173;28;20067;-59
2023/01/23 13:41:29;;;;;;;7.00;1.77;;;;;;;;;;5097346;28;20020;-60
2023/01/23 13:44:03;;;;;;;9.00;2.50;;;;;;;;;;5095906;28;20110;-60
2023/01/23 13:46:56;;;;;;;8.53;3.13;;;;;;;;;;5096637;28;20099;-61
2023/01/23 13:49:50;;;;;;;3.33;1.90;;;;;;;;;;5095784;28;20016;-59
2023/01/23 13:57:47;;;;;;;6.97;3.37;;;;;;;;;;5095347;28;20051;-60
2023/01/23 14:00:15;;;;;;;13.97;4.50;;;;;;;;;;5094698;28;20020;-60
2023/01/23 14:05:34;;;;;;;7.97;3.77;;;;;;;;;;5094872;28;20148;-59
2023/01/23 14:08:13;;;;;;;5.77;2.67;;;;;;;;;;5095270;28;20016;-64
2023/01/23 14:10:43;;;;;;;4.97;2.67;;;;;;;;;;5096040;28;20024;-65
2023/01/23 14:13:10;;;;;;;6.23;2.33;;;;;;;;;;5095611;28;20089;-57
2023/01/23 14:18:40;;;;;;;8.45;3.25;;;;;;;;;;5095050;28;20034;-59
2023/01/23 14:21:14;;;;;;;6.97;2.43;;;;;;;;;;5092499;28;20028;-57
2023/01/23 14:23:40;;;;;;;4.43;2.15;;;;;;;;;;5094743;28;20028;-58
2023/01/23 14:26:09;;;;;;;5.00;2.23;;;;;;;;;;5094652;28;20115;-58
2023/01/23 14:28:34;;;;;;;4.07;2.33;;;;;;;;;;5095686;28;20103;-60
2023/01/23 14:31:04;;;;;;;5.87;2.83;;;;;;;;;;5094660;28;21887;-58
2023/01/23 14:33:43;;;;;;;11.83;3.47;;;;;;;;;;5095349;28;20016;-59
2023/01/23 14:36:13;;;;;;;6.70;3.17;;;;;;;;;;5094601;28;20028;-58
2023/01/23 14:38:38;;;;;;;5.20;2.73;;;;;;;;;;5093852;28;20016;-59
2023/01/23 14:41:05;;;;;;;19.10;3.77;;;;;;;;;;5093896;28;20027;-60
2023/01/23 14:43:32;;;;;;;7.13;3.47;;;;;;;;;;5095451;28;20016;-66
2023/01/23 14:46:02;;;;;;;9.30;3.43;;;;;;;;;;5096317;28;20050;-57
2023/01/23 14:48:31;;;;;;;5.87;2.77;;;;;;;;;;5096071;28;20027;-60
2023/01/23 14:51:15;;;;;;;3.73;1.80;;;;;;;;;;5095531;28;20095;-60
2023/01/23 14:53:40;;;;;;;6.70;3.50;;;;;;;;;;5094908;28;20096;-59
2023/01/23 14:56:07;;;;;;;8.10;4.20;;;;;;;;;;5094438;28;20081;-60
2023/01/23 14:58:33;;;;;;;7.00;3.57;;;;;;;;;;5093460;28;20078;-59
2023/01/23 15:01:00;;;;;;;8.03;4.23;;;;;;;;;;5092057;28;20055;-58
2023/01/23 15:03:54;;;;;;;10.50;3.67;;;;;;;;;;5093249;28;20488;-59
2023/01/23 15:06:20;;;;;;;8.17;3.63;;;;;;;;;;5093458;28;20016;-60
2023/01/23 15:08:46;;;;;;;8.17;4.20;;;;;;;;;;5093549;28;20016;-60
2023/01/23 15:11:12;;;;;;;8.17;4.30;;;;;;;;;;5092667;28;20027;-57